sensor_id;sensor_type;location;lat;lon;timestamp;pressure;altitude;pressure_sealevel;temperature;humidity
57799;BME280;43626;53.866;30.298;2023-04-12T00:01:13;1021.2;;;9.7;49.6
57799;BME280;43626;53.866;30.298;2023-04-12T00:06:35;1021.1;;;9.8;48.8
57799;BME280;43626;53.866;30.298;2023-04-12T00:11:49;1021;;;9.9;48.2
57799;BME280;43626;53.866;30.298;2023-04-12T00:16:03;1021;;;10;48.2
57799;BME280;43626;53.866;30.298;2023-04-12T00:21:35;1021;;;10;48.3
57799;BME280;43626;53.866;30.298;2023-04-12T00:26:39;1020.9;;;10;48.1
57799;BME280;43626;53.866;30.298;2023-04-12T00:31:35;1020.9;;;10;47.9
57799;BME280;43626;53.866;30.298;2023-04-12T00:36:49;1020.9;;;10.1;47.7
57799;BME280;43626;53.866;30.298;2023-04-12T00:41:13;1020.8;;;10.1;47.4
57799;BME280;43626;53.866;30.298;2023-04-12T00:46:33;1020.8;;;10;46.6
57799;BME280;43626;53.866;30.298;2023-04-12T00:51:25;1020.8;;;10;46.5
57799;BME280;43626;53.866;30.298;2023-04-12T00:56:33;1020.8;;;10;46.3
57799;BME280;43626;53.866;30.298;2023-04-12T01:01:37;1020.8;;;10;46.1
57799;BME280;43626;53.866;30.298;2023-04-12T01:06:06;1020.7;;;10.1;46
57799;BME280;43626;53.866;30.298;2023-04-12T01:11:34;1020.7;;;10.1;46.1
57799;BME280;43626;53.866;30.298;2023-04-12T01:16:26;1020.6;;;10.1;46.2
57799;BME280;43626;53.866;30.298;2023-04-12T01:21:34;1020.6;;;10.1;46.2
57799;BME280;43626;53.866;30.298;2023-04-12T01:26:46;1020.5;;;10.1;46.1
57799;BME280;43626;53.866;30.298;2023-04-12T01:31:19;1020.5;;;10.1;45.9
57799;BME280;43626;53.866;30.298;2023-04-12T01:36:31;1020.4;;;10.1;45.6
57799;BME280;43626;53.866;30.298;2023-04-12T01:41:38;1020.3;;;10;45.3
57799;BME280;43626;53.866;30.298;2023-04-12T01:46:33;1020.3;;;10;45.1
57799;BME280;43626;53.866;30.298;2023-04-12T01:51:44;1020.3;;;9.9;45.1
57799;BME280;43626;53.866;30.298;2023-04-12T01:56:06;1020.2;;;9.8;45.1
57799;BME280;43626;53.866;30.298;2023-04-12T02:01:03;1020.2;;;9.7;45.2
57799;BME280;43626;53.866;30.298;2023-04-12T02:06:05;1020.2;;;9.7;45.3
57799;BME280;43626;53.866;30.298;2023-04-12T02:11:49;1020.2;;;9.7;45.6
57799;BME280;43626;53.866;30.298;2023-04-12T02:16:25;1020.2;;;9.7;45.7
57799;BME280;43626;53.866;30.298;2023-04-12T02:21:13;1020.1;;;9.7;45.7
57799;BME280;43626;53.866;30.298;2023-04-12T02:26:13;1020.2;;;9.7;45.8
57799;BME280;43626;53.866;30.298;2023-04-12T02:31:29;1020.1;;;9.7;45.8
57799;BME280;43626;53.866;30.298;2023-04-12T02:36:51;1020.1;;;9.7;45.7
57799;BME280;43626;53.866;30.298;2023-04-12T02:41:15;1020.1;;;9.6;45.7
57799;BME280;43626;53.866;30.298;2023-04-12T02:46:25;1020.2;;;9.5;45.9
57799;BME280;43626;53.866;30.298;2023-04-12T02:51:25;1020.1;;;9.5;46
57799;BME280;43626;53.866;30.298;2023-04-12T02:56:51;1020.1;;;9.5;45.9
57799;BME280;43626;53.866;30.298;2023-04-12T03:01:51;1020.1;;;9.4;46
57799;BME280;43626;53.866;30.298;2023-04-12T03:06:13;1020.1;;;9.5;46.1
57799;BME280;43626;53.866;30.298;2023-04-12T03:11:03;1020.1;;;9.5;46
57799;BME280;43626;53.866;30.298;2023-04-12T03:16:25;1020.1;;;9.4;46
57799;BME280;43626;53.866;30.298;2023-04-12T03:21:35;1020.1;;;9.4;46.1
57799;BME280;43626;53.866;30.298;2023-04-12T03:26:49;1020.1;;;9.5;45.9
57799;BME280;43626;53.866;30.298;2023-04-12T03:31:25;1020.1;;;9.4;45.9
57799;BME280;43626;53.866;30.298;2023-04-12T03:36:15;1020.1;;;9.5;45.8
57799;BME280;43626;53.866;30.298;2023-04-12T03:41:14;1020.1;;;9.5;45.7
57799;BME280;43626;53.866;30.298;2023-04-12T03:46:19;1020.1;;;9.5;45.4
57799;BME280;43626;53.866;30.298;2023-04-12T03:51:49;1020.1;;;9.6;45.6
57799;BME280;43626;53.866;30.298;2023-04-12T03:56:49;1020;;;9.6;45.5
57799;BME280;43626;53.866;30.298;2023-04-12T04:01:03;1020;;;9.6;45.4
57799;BME280;43626;53.866;30.298;2023-04-12T04:06:41;1020;;;9.7;45.3
57799;BME280;43626;53.866;30.298;2023-04-12T04:11:37;1020;;;9.8;45.1
57799;BME280;43626;53.866;30.298;2023-04-12T04:16:51;1020.1;;;9.8;45.1
57799;BME280;43626;53.866;30.298;2023-04-12T04:21:23;1020.1;;;9.8;45
57799;BME280;43626;53.866;30.298;2023-04-12T04:26:25;1020;;;9.8;45.1
57799;BME280;43626;53.866;30.298;2023-04-12T04:31:04;1020.1;;;9.8;44.7
57799;BME280;43626;53.866;30.298;2023-04-12T04:36:31;1020.1;;;9.8;44.5
57799;BME280;43626;53.866;30.298;2023-04-12T04:41:49;1020.1;;;9.9;44.5
57799;BME280;43626;53.866;30.298;2023-04-12T04:46:23;1020.1;;;10;44.1
57799;BME280;43626;53.866;30.298;2023-04-12T04:51:03;1020.1;;;10;44
57799;BME280;43626;53.866;30.298;2023-04-12T04:56:13;1020.1;;;10.1;43.9
57799;BME280;43626;53.866;30.298;2023-04-12T05:01:29;1020.1;;;10.1;43.9
57799;BME280;43626;53.866;30.298;2023-04-12T05:06:47;1020.1;;;10.1;43.9
57799;BME280;43626;53.866;30.298;2023-04-12T05:11:23;1020.1;;;10.1;44
57799;BME280;43626;53.866;30.298;2023-04-12T05:16:04;1020.1;;;10.2;43.9
57799;BME280;43626;53.866;30.298;2023-04-12T05:21:21;1020;;;10.2;43.9
57799;BME280;43626;53.866;30.298;2023-04-12T05:26:35;1020;;;10.3;43.8
57799;BME280;43626;53.866;30.298;2023-04-12T05:31:47;1020;;;10.4;43.5
57799;BME280;43626;53.866;30.298;2023-04-12T05:36:21;1020;;;10.5;43.5
57799;BME280;43626;53.866;30.298;2023-04-12T05:41:03;1020;;;10.6;43.1
57799;BME280;43626;53.866;30.298;2023-04-12T05:46:23;1020;;;10.7;42.8
57799;BME280;43626;53.866;30.298;2023-04-12T05:51:37;1020;;;10.8;42.5
57799;BME280;43626;53.866;30.298;2023-04-12T05:56:51;1019.9;;;11;42.6
57799;BME280;43626;53.866;30.298;2023-04-12T06:01:37;1019.9;;;11.2;42.6
57799;BME280;43626;53.866;30.298;2023-04-12T06:06:13;1019.9;;;11.4;42.3
57799;BME280;43626;53.866;30.298;2023-04-12T06:11:23;1019.8;;;11.6;42.1
57799;BME280;43626;53.866;30.298;2023-04-12T06:16:35;1019.8;;;11.9;41.8
57799;BME280;43626;53.866;30.298;2023-04-12T06:21:47;1019.7;;;12.1;41.3
57799;BME280;43626;53.866;30.298;2023-04-12T06:26:36;1019.7;;;12.2;40.1
57799;BME280;43626;53.866;30.298;2023-04-12T06:31:14;1019.7;;;12.4;39.4
57799;BME280;43626;53.866;30.298;2023-04-12T06:36:23;1019.7;;;12.5;39.2
57799;BME280;43626;53.866;30.298;2023-04-12T06:41:27;1019.6;;;12.8;38.3
57799;BME280;43626;53.866;30.298;2023-04-12T06:46:47;1019.6;;;12.9;37.9
57799;BME280;43626;53.866;30.298;2023-04-12T06:51:35;1019.6;;;13.1;38.2
57799;BME280;43626;53.866;30.298;2023-04-12T06:56:04;1019.5;;;13.2;37.3
57799;BME280;43626;53.866;30.298;2023-04-12T07:01:23;1019.5;;;13.3;36.9
57799;BME280;43626;53.866;30.298;2023-04-12T07:06:35;1019.5;;;13.4;36.9
57799;BME280;43626;53.866;30.298;2023-04-12T07:11:47;1019.5;;;13.5;36.3
57799;BME280;43626;53.866;30.298;2023-04-12T07:16:35;1019.4;;;13.6;36.1
57799;BME280;43626;53.866;30.298;2023-04-12T07:21:25;1019.4;;;13.7;35
57799;BME280;43626;53.866;30.298;2023-04-12T07:26:25;1019.4;;;13.8;34.3
57799;BME280;43626;53.866;30.298;2023-04-12T07:31:35;1019.3;;;14;33.9
57799;BME280;43626;53.866;30.298;2023-04-12T07:36:49;1019.3;;;14.2;33.8
57799;BME280;43626;53.866;30.298;2023-04-12T07:41:29;1019.3;;;14.5;33.9
57799;BME280;43626;53.866;30.298;2023-04-12T07:46:13;1019.2;;;14.7;33.9
57799;BME280;43626;53.866;30.298;2023-04-12T07:51:25;1019.2;;;14.9;33.8
57799;BME280;43626;53.866;30.298;2023-04-12T07:56:37;1019.1;;;15;33.6
57799;BME280;43626;53.866;30.298;2023-04-12T08:01:51;1019.1;;;15.1;33.5
57799;BME280;43626;53.866;30.298;2023-04-12T08:06:37;1019.1;;;15.2;33.4
57799;BME280;43626;53.866;30.298;2023-04-12T08:11:03;1019;;;15.3;33.1
57799;BME280;43626;53.866;30.298;2023-04-12T08:16:04;1019;;;15.3;31.9
57799;BME280;43626;53.866;30.298;2023-04-12T08:21:37;1019;;;15.4;32
57799;BME280;43626;53.866;30.298;2023-04-12T08:26:51;1019;;;15.5;32
57799;BME280;43626;53.866;30.298;2023-04-12T08:31:37;1018.9;;;15.6;31.3
57799;BME280;43626;53.866;30.298;2023-04-12T08:36:03;1018.9;;;15.7;31
57799;BME280;43626;53.866;30.298;2023-04-12T08:41:25;1018.8;;;15.7;30.7
57799;BME280;43626;53.866;30.298;2023-04-12T08:46:35;1018.8;;;15.8;31
57799;BME280;43626;53.866;30.298;2023-04-12T08:51:47;1018.8;;;16;31.1
57799;BME280;43626;53.866;30.298;2023-04-12T08:56:15;1018.7;;;16.2;30.9
57799;BME280;43626;53.866;30.298;2023-04-12T09:01:23;1018.6;;;16.3;30.6
57799;BME280;43626;53.866;30.298;2023-04-12T09:06:25;1018.6;;;16.4;30.6
57799;BME280;43626;53.866;30.298;2023-04-12T09:11:36;1018.5;;;16.4;29.7
57799;BME280;43626;53.866;30.298;2023-04-12T09:16:47;1018.5;;;16.4;29.8
57799;BME280;43626;53.866;30.298;2023-04-12T09:21:35;1018.5;;;16.4;29.6
57799;BME280;43626;53.866;30.298;2023-04-12T09:26:03;1018.4;;;16.4;30
57799;BME280;43626;53.866;30.298;2023-04-12T09:31:03;1018.3;;;16.5;30.2
57799;BME280;43626;53.866;30.298;2023-04-12T09:36:36;1018.3;;;16.7;30.2
57799;BME280;43626;53.866;30.298;2023-04-12T09:41:47;1018.2;;;16.6;30
57799;BME280;43626;53.866;30.298;2023-04-12T09:46:35;1018.2;;;16.5;30
57799;BME280;43626;53.866;30.298;2023-04-12T09:51:03;1018.2;;;16.4;30.4
57799;BME280;43626;53.866;30.298;2023-04-12T09:56:03;1018.2;;;16.5;30.3
57799;BME280;43626;53.866;30.298;2023-04-12T10:01:38;1018.1;;;16.7;30.3
57799;BME280;43626;53.866;30.298;2023-04-12T10:06:35;1018.1;;;16.7;29.6
57799;BME280;43626;53.866;30.298;2023-04-12T10:11:50;1018.1;;;16.7;29.6
57799;BME280;43626;53.866;30.298;2023-04-12T10:16:03;1018.1;;;16.7;29.7
57799;BME280;43626;53.866;30.298;2023-04-12T10:21:04;1018.1;;;16.8;29.6
57799;BME280;43626;53.866;30.298;2023-04-12T10:26:14;1018;;;17;29.4
57799;BME280;43626;53.866;30.298;2023-04-12T10:31:35;1018;;;17.1;29.3
57799;BME280;43626;53.866;30.298;2023-04-12T10:36:51;1017.9;;;17.2;29.5
57799;BME280;43626;53.866;30.298;2023-04-12T10:41:09;1018;;;17.1;29.4
57799;BME280;43626;53.866;30.298;2023-04-12T10:46:03;1018;;;16.9;29.4
57799;BME280;43626;53.866;30.298;2023-04-12T10:51:23;1017.9;;;16.9;29.6
57799;BME280;43626;53.866;30.298;2023-04-12T10:56:38;1017.9;;;16.9;29.7
57799;BME280;43626;53.866;30.298;2023-04-12T11:02:07;1017.8;;;16.8;29.2
57799;BME280;43626;53.866;30.298;2023-04-12T11:06:15;1017.9;;;16.6;29.4
57799;BME280;43626;53.866;30.298;2023-04-12T11:11:06;1017.9;;;16.6;29.7
57799;BME280;43626;53.866;30.298;2023-04-12T11:16:04;1017.8;;;16.6;29.8
57799;BME280;43626;53.866;30.298;2023-04-12T11:21:37;1017.7;;;16.7;29.8
57799;BME280;43626;53.866;30.298;2023-04-12T11:26:51;1017.7;;;16.7;29.6
57799;BME280;43626;53.866;30.298;2023-04-12T11:31:23;1017.6;;;16.7;30.1
57799;BME280;43626;53.866;30.298;2023-04-12T11:36:25;1017.5;;;16.8;30.4
57799;BME280;43626;53.866;30.298;2023-04-12T11:41:42;1017.4;;;17;30.5
57799;BME280;43626;53.866;30.298;2023-04-12T11:46:33;1017.4;;;17.1;30.3
57799;BME280;43626;53.866;30.298;2023-04-12T11:51:46;1017.4;;;17.2;30
57799;BME280;43626;53.866;30.298;2023-04-12T11:56:04;1017.4;;;17.2;29.9
57799;BME280;43626;53.866;30.298;2023-04-12T12:01:04;1017.3;;;17.2;29.8
57799;BME280;43626;53.866;30.298;2023-04-12T12:06:03;1017.3;;;17.2;30.3
57799;BME280;43626;53.866;30.298;2023-04-12T12:11:35;1017.3;;;17.3;30
57799;BME280;43626;53.866;30.298;2023-04-12T12:16:51;1017.2;;;17.3;29.4
57799;BME280;43626;53.866;30.298;2023-04-12T12:21:14;1017.2;;;17.2;29.5
57799;BME280;43626;53.866;30.298;2023-04-12T12:26:24;1017.1;;;17.2;29.6
57799;BME280;43626;53.866;30.298;2023-04-12T12:31:17;1017.1;;;17.3;29.6
57799;BME280;43626;53.866;30.298;2023-04-12T12:36:35;1017;;;17.3;29.7
57799;BME280;43626;53.866;30.298;2023-04-12T12:41:51;1017;;;17.3;29.9
57799;BME280;43626;53.866;30.298;2023-04-12T12:46:23;1016.9;;;17.4;29.9
57799;BME280;43626;53.866;30.298;2023-04-12T12:51:23;1016.8;;;17.3;29.8
57799;BME280;43626;53.866;30.298;2023-04-12T12:56:04;1016.8;;;17.3;29.7
57799;BME280;43626;53.866;30.298;2023-04-12T13:01:35;1016.7;;;17.2;30
57799;BME280;43626;53.866;30.298;2023-04-12T13:06:51;1016.7;;;17.2;30.1
57799;BME280;43626;53.866;30.298;2023-04-12T13:11:04;1016.6;;;17.2;29.7
57799;BME280;43626;53.866;30.298;2023-04-12T13:16:04;1016.6;;;17.3;30.4
57799;BME280;43626;53.866;30.298;2023-04-12T13:21:25;1016.5;;;17.3;30.2
57799;BME280;43626;53.866;30.298;2023-04-12T13:26:37;1016.5;;;17.4;30
57799;BME280;43626;53.866;30.298;2023-04-12T13:31:49;1016.4;;;17.5;30.1
57799;BME280;43626;53.866;30.298;2023-04-12T13:36:13;1016.3;;;17.6;29.9
57799;BME280;43626;53.866;30.298;2023-04-12T13:41:11;1016.3;;;17.6;29.8
57799;BME280;43626;53.866;30.298;2023-04-12T13:46:04;1016.3;;;17.7;29.6
57799;BME280;43626;53.866;30.298;2023-04-12T13:51:29;1016.3;;;17.6;29.1
57799;BME280;43626;53.866;30.298;2023-04-12T13:56:47;1016.3;;;17.6;28.8
57799;BME280;43626;53.866;30.298;2023-04-12T14:01:04;1016.3;;;17.5;28.4
57799;BME280;43626;53.866;30.298;2023-04-12T14:06:15;1016.3;;;17.4;28.7
57799;BME280;43626;53.866;30.298;2023-04-12T14:11:04;1016.3;;;17.4;29.3
57799;BME280;43626;53.866;30.298;2023-04-12T14:16:31;1016.3;;;17.4;29.2
57799;BME280;43626;53.866;30.298;2023-04-12T14:21:46;1016.2;;;17.4;29.3
57799;BME280;43626;53.866;30.298;2023-04-12T14:26:31;1016.2;;;17.5;29.3
57799;BME280;43626;53.866;30.298;2023-04-12T14:31:25;1016.1;;;17.5;29.4
57799;BME280;43626;53.866;30.298;2023-04-12T14:36:04;1016.1;;;17.5;29.6
57799;BME280;43626;53.866;30.298;2023-04-12T14:41:33;1016.1;;;17.5;29.5
57799;BME280;43626;53.866;30.298;2023-04-12T14:46:51;1016.1;;;17.5;29.5
57799;BME280;43626;53.866;30.298;2023-04-12T14:51:37;1016.1;;;17.4;29.5
57799;BME280;43626;53.866;30.298;2023-04-12T14:56:04;1016.1;;;17.4;29.7
57799;BME280;43626;53.866;30.298;2023-04-12T15:01:04;1016.1;;;17.4;30.1
57799;BME280;43626;53.866;30.298;2023-04-12T15:06:35;1016;;;17.3;30.1
57799;BME280;43626;53.866;30.298;2023-04-12T15:11:50;1016;;;17.3;30.2
57799;BME280;43626;53.866;30.298;2023-04-12T15:16:36;1016;;;17.3;30.1
57799;BME280;43626;53.866;30.298;2023-04-12T15:21:15;1016;;;17.3;30.4
57799;BME280;43626;53.866;30.298;2023-04-12T15:26:13;1016;;;17.3;30.7
57799;BME280;43626;53.866;30.298;2023-04-12T15:31:34;1016;;;17.3;30.9
57799;BME280;43626;53.866;30.298;2023-04-12T15:36:51;1016;;;17.2;30.8
57799;BME280;43626;53.866;30.298;2023-04-12T15:41:38;1016;;;17.2;31.3
57799;BME280;43626;53.866;30.298;2023-04-12T15:46:13;1016;;;17.1;31.9
57799;BME280;43626;53.866;30.298;2023-04-12T15:51:13;1015.9;;;17.1;32.3
57799;BME280;43626;53.866;30.298;2023-04-12T15:56:37;1015.9;;;17;32.2
57799;BME280;43626;53.866;30.298;2023-04-12T16:01:50;1015.9;;;16.9;32.5
57799;BME280;43626;53.866;30.298;2023-04-12T16:06:36;1015.9;;;16.8;32.3
57799;BME280;43626;53.866;30.298;2023-04-12T16:11:26;1015.9;;;16.7;32.4
57799;BME280;43626;53.866;30.298;2023-04-12T16:16:16;1015.9;;;16.6;32.7
57799;BME280;43626;53.866;30.298;2023-04-12T16:21:36;1015.9;;;16.6;33
57799;BME280;43626;53.866;30.298;2023-04-12T16:26:50;1016;;;16.5;33.3
57799;BME280;43626;53.866;30.298;2023-04-12T16:31:26;1016;;;16.4;33.5
57799;BME280;43626;53.866;30.298;2023-04-12T16:36:04;1016;;;16.3;33.7
57799;BME280;43626;53.866;30.298;2023-04-12T16:41:26;1016;;;16.3;34.1
57799;BME280;43626;53.866;30.298;2023-04-12T16:46:22;1016;;;16.2;34.3
57799;BME280;43626;53.866;30.298;2023-04-12T16:51:50;1016.1;;;16.2;34.4
57799;BME280;43626;53.866;30.298;2023-04-12T16:56:26;1016.2;;;16.1;34.7
57799;BME280;43626;53.866;30.298;2023-04-12T17:01:12;1016.3;;;16.1;34.7
57799;BME280;43626;53.866;30.298;2023-04-12T17:06:04;1016.4;;;16;35
57799;BME280;43626;53.866;30.298;2023-04-12T17:11:50;1016.4;;;16;35.2
57799;BME280;43626;53.866;30.298;2023-04-12T17:16:50;1016.5;;;15.8;34.2
57799;BME280;43626;53.866;30.298;2023-04-12T17:21:39;1016.5;;;15.7;33.6
57799;BME280;43626;53.866;30.298;2023-04-12T17:26:26;1016.6;;;15.7;33.1
57799;BME280;43626;53.866;30.298;2023-04-12T17:31:16;1016.6;;;15.6;33.2
57799;BME280;43626;53.866;30.298;2023-04-12T17:36:26;1016.7;;;15.5;33
57799;BME280;43626;53.866;30.298;2023-04-12T17:41:50;1016.7;;;15.5;33.2
57799;BME280;43626;53.866;30.298;2023-04-12T17:46:26;1016.7;;;15.5;32.9
57799;BME280;43626;53.866;30.298;2023-04-12T17:51:16;1016.7;;;15.5;33.2
57799;BME280;43626;53.866;30.298;2023-04-12T17:56:04;1016.7;;;15.5;33.4
57799;BME280;43626;53.866;30.298;2023-04-12T18:01:36;1016.8;;;15.4;33.4
57799;BME280;43626;53.866;30.298;2023-04-12T18:06:50;1016.7;;;15.4;33.7
57799;BME280;43626;53.866;30.298;2023-04-12T18:11:36;1016.8;;;15.3;33.1
57799;BME280;43626;53.866;30.298;2023-04-12T18:16:26;1016.7;;;15.3;33.3
57799;BME280;43626;53.866;30.298;2023-04-12T18:21:16;1016.7;;;15.3;33.6
57799;BME280;43626;53.866;30.298;2023-04-12T18:26:36;1016.7;;;15.3;33.3
57799;BME280;43626;53.866;30.298;2023-04-12T18:31:48;1016.6;;;15.3;33.1
57799;BME280;43626;53.866;30.298;2023-04-12T18:36:36;1016.4;;;15.2;32.9
57799;BME280;43626;53.866;30.298;2023-04-12T18:41:04;1016.2;;;15.2;32.9
57799;BME280;43626;53.866;30.298;2023-04-12T18:46:04;1016.1;;;15.3;33.1
57799;BME280;43626;53.866;30.298;2023-04-12T18:51:42;1016.1;;;15.4;33.2
57799;BME280;43626;53.866;30.298;2023-04-12T18:56:42;1016;;;15.4;33.2
57799;BME280;43626;53.866;30.298;2023-04-12T19:01:04;1016;;;15.5;33.3
57799;BME280;43626;53.866;30.298;2023-04-12T19:06:52;1015.9;;;15.5;33.4
57799;BME280;43626;53.866;30.298;2023-04-12T19:11:38;1015.9;;;15.5;33.7
57799;BME280;43626;53.866;30.298;2023-04-12T19:16:48;1015.8;;;15.5;33.9
57799;BME280;43626;53.866;30.298;2023-04-12T19:21:16;1015.8;;;15.4;33.9
57799;BME280;43626;53.866;30.298;2023-04-12T19:26:10;1015.8;;;15.4;34.9
57799;BME280;43626;53.866;30.298;2023-04-12T19:31:50;1015.8;;;15.3;35.1
57799;BME280;43626;53.866;30.298;2023-04-12T19:36:14;1015.8;;;15.3;35.2
57799;BME280;43626;53.866;30.298;2023-04-12T19:41:50;1015.8;;;15.2;35.5
57799;BME280;43626;53.866;30.298;2023-04-12T19:46:28;1015.7;;;15.1;35.2
57799;BME280;43626;53.866;30.298;2023-04-12T19:51:34;1015.7;;;15.1;35.5
57799;BME280;43626;53.866;30.298;2023-04-12T19:56:50;1015.7;;;15.1;35.4
57799;BME280;43626;53.866;30.298;2023-04-12T20:01:14;1015.7;;;15;34.4
57799;BME280;43626;53.866;30.298;2023-04-12T20:06:44;1015.6;;;14.9;34.3
57799;BME280;43626;53.866;30.298;2023-04-12T20:11:40;1015.6;;;14.8;34.4
57799;BME280;43626;53.866;30.298;2023-04-12T20:16:10;1015.6;;;14.7;34.7
57799;BME280;43626;53.866;30.298;2023-04-12T20:21:46;1015.6;;;14.6;34.9
57799;BME280;43626;53.866;30.298;2023-04-12T20:26:28;1015.6;;;14.6;34.9
57799;BME280;43626;53.866;30.298;2023-04-12T20:31:46;1015.6;;;14.5;35.1
57799;BME280;43626;53.866;30.298;2023-04-12T20:36:38;1015.7;;;14.5;35.3
57799;BME280;43626;53.866;30.298;2023-04-12T20:41:30;1015.7;;;14.5;35.4
57799;BME280;43626;53.866;30.298;2023-04-12T20:46:48;1015.6;;;14.5;35.5
57799;BME280;43626;53.866;30.298;2023-04-12T20:51:12;1015.6;;;14.5;35.3
57799;BME280;43626;53.866;30.298;2023-04-12T20:56:34;1015.7;;;14.4;34.7
57799;BME280;43626;53.866;30.298;2023-04-12T21:01:50;1015.7;;;14.3;34.5
57799;BME280;43626;53.866;30.298;2023-04-12T21:06:10;1015.8;;;14.3;34.7
57799;BME280;43626;53.866;30.298;2023-04-12T21:11:50;1015.8;;;14.4;35.1
57799;BME280;43626;53.866;30.298;2023-04-12T21:16:26;1015.9;;;14.4;35.2
57799;BME280;43626;53.866;30.298;2023-04-12T21:21:50;1015.9;;;14.4;35.4
57799;BME280;43626;53.866;30.298;2023-04-12T21:26:40;1015.9;;;14.4;35.4
57799;BME280;43626;53.866;30.298;2023-04-12T21:31:12;1015.9;;;14.3;35.6
57799;BME280;43626;53.866;30.298;2023-04-12T21:36:50;1015.9;;;14.3;35.8
57799;BME280;43626;53.866;30.298;2023-04-12T21:41:36;1015.9;;;14.3;36.1
57799;BME280;43626;53.866;30.298;2023-04-12T21:46:48;1015.9;;;14.2;36.5
57799;BME280;43626;53.866;30.298;2023-04-12T21:51:06;1015.8;;;14.1;37
57799;BME280;43626;53.866;30.298;2023-04-12T21:56:32;1015.8;;;14.1;37.6
57799;BME280;43626;53.866;30.298;2023-04-12T22:01:44;1015.7;;;14.2;37.7
57799;BME280;43626;53.866;30.298;2023-04-12T22:06:10;1015.8;;;14.2;38.3
57799;BME280;43626;53.866;30.298;2023-04-12T22:11:48;1015.8;;;14.1;38.3
57799;BME280;43626;53.866;30.298;2023-04-12T22:16:38;1015.8;;;14.2;38.8
57799;BME280;43626;53.866;30.298;2023-04-12T22:21:18;1015.7;;;14.1;39
57799;BME280;43626;53.866;30.298;2023-04-12T22:26:46;1015.7;;;14.1;39.4
57799;BME280;43626;53.866;30.298;2023-04-12T22:31:12;1015.7;;;14.1;39.6
57799;BME280;43626;53.866;30.298;2023-04-12T22:36:48;1015.8;;;14;40
57799;BME280;43626;53.866;30.298;2023-04-12T22:41:48;1015.8;;;14;40.5
57799;BME280;43626;53.866;30.298;2023-04-12T22:46:18;1015.7;;;13.9;41.4
57799;BME280;43626;53.866;30.298;2023-04-12T22:51:48;1015.6;;;13.9;41.9
57799;BME280;43626;53.866;30.298;2023-04-12T22:56:04;1015.5;;;13.9;42.3
57799;BME280;43626;53.866;30.298;2023-04-12T23:01:32;1015.4;;;13.8;42.1
57799;BME280;43626;53.866;30.298;2023-04-12T23:06:46;1015.3;;;13.8;42.2
57799;BME280;43626;53.866;30.298;2023-04-12T23:11:18;1015.2;;;13.7;42.3
57799;BME280;43626;53.866;30.298;2023-04-12T23:16:48;1015.2;;;13.7;42.3
57799;BME280;43626;53.866;30.298;2023-04-12T23:21:04;1015.2;;;13.7;42.4
57799;BME280;43626;53.866;30.298;2023-04-12T23:26:32;1015.2;;;13.7;42.5
57799;BME280;43626;53.866;30.298;2023-04-12T23:31:48;1015.2;;;13.7;42.6
57799;BME280;43626;53.866;30.298;2023-04-12T23:36:12;1015.1;;;13.6;42.6
57799;BME280;43626;53.866;30.298;2023-04-12T23:41:50;1015;;;13.6;42.8
57799;BME280;43626;53.866;30.298;2023-04-12T23:46:16;1015.1;;;13.6;42.5
57799;BME280;43626;53.866;30.298;2023-04-12T23:51:20;1015.1;;;13.6;41.5
57799;BME280;43626;53.866;30.298;2023-04-12T23:56:46;1015.1;;;13.6;40.6
